Sky Valley, California
Current Conditions -  °F | °C
As of 1:53 AM on Friday 31 Oct 2014 (Local Time) from KPSP Reporting Station
Clear Clear  
Wind Chill: 67°   Ceiling: Unl
Heat Index: 67°   Visibility: NA
Dew Point: 48°   Wind: 3mph
Humidity: 51%   Direction: 250°WSW
Pressure: 29.88"   Gusts: NA
Location:  33.8584°N, 116.312°W
Report Text: KPSP 310853Z AUTO 25003KT CLR 19/09 A2988 RMK AO2 SLP117 T01940089 58009 TSNO
Loading
Personal Weather Stations






























Interactive Weather Map
Tropical Storm Tracking
New forecast layout! Learn more

10-Day Weather Forecast

Advertisements
Track Severe Weather on mobile